Time;durP1;ratioP1;P1;durP2;ratioP2;P2;SDS_P1;SDS_P2;PMS_P1;PMS_P2;Temp;Humidity;BMP_temperature;BMP_pressure;BME280_temperature;BME280_humidity;BME280_pressure;Samples;Min_cycle;Max_cycle;Signal;HPM_P1;HPM_P2
2023/05/29 00:00:45;;;;;;;6.80;4.03;;;;;;;18.24;100.00;99153.38;5037775;28;20192;-71
2023/05/29 00:03:13;;;;;;;5.17;4.70;;;;;;;18.28;100.00;99159.88;5049852;28;20192;-71
2023/05/29 00:05:40;;;;;;;5.40;4.80;;;;;;;18.33;100.00;99147.28;5035209;28;20193;-71
2023/05/29 00:08:07;;;;;;;5.47;4.17;;;;;;;18.38;100.00;99149.25;5031886;28;20288;-71
2023/05/29 00:10:35;;;;;;;4.93;4.30;;;;;;;18.41;100.00;99146.03;5035228;28;20192;-73
2023/05/29 00:13:02;;;;;;;5.60;4.53;;;;;;;18.44;100.00;99148.22;5051432;28;20192;-71
2023/05/29 00:15:30;;;;;;;4.60;4.20;;;;;;;18.51;100.00;99151.53;5051551;28;20202;-69
2023/05/29 00:17:56;;;;;;;5.93;4.30;;;;;;;18.65;100.00;99147.34;5051427;28;20224;-70
2023/05/29 00:20:25;;;;;;;5.33;4.83;;;;;;;18.76;100.00;99149.06;5051648;28;20201;-71
2023/05/29 00:22:51;;;;;;;4.77;4.37;;;;;;;18.92;100.00;99145.41;5045373;28;20252;-70
2023/05/29 00:25:19;;;;;;;7.10;4.50;;;;;;;19.05;100.00;99151.16;5031875;28;20199;-69
2023/05/29 00:27:45;;;;;;;5.50;4.87;;;;;;;19.14;100.00;99159.56;5031727;28;20680;-69
2023/05/29 00:30:13;;;;;;;6.60;4.07;;;;;;;19.13;100.00;99137.22;5031892;28;20326;-69
2023/05/29 00:32:40;;;;;;;6.00;5.40;;;;;;;19.08;100.00;99141.75;5046574;28;20196;-69
2023/05/29 00:35:08;;;;;;;9.00;5.40;;;;;;;19.00;100.00;99137.69;5031582;28;20738;-69
2023/05/29 00:37:36;;;;;;;7.70;5.67;;;;;;;18.89;100.00;99141.38;5031765;28;20316;-69
2023/05/29 00:40:03;;;;;;;9.60;6.73;;;;;;;18.80;100.00;99142.09;5030645;28;20194;-71
2023/05/29 00:42:30;;;;;;;14.97;5.60;;;;;;;18.70;100.00;99136.63;5047282;28;20231;-70
2023/05/29 00:44:57;;;;;;;8.20;5.77;;;;;;;18.74;100.00;99146.63;5051205;28;20256;-69
2023/05/29 00:47:24;;;;;;;5.90;5.47;;;;;;;18.63;100.00;99141.41;5049837;28;20296;-69
2023/05/29 00:49:52;;;;;;;6.30;5.70;;;;;;;18.62;100.00;99134.41;5051594;28;20198;-70
2023/05/29 00:52:20;;;;;;;6.23;5.70;;;;;;;18.59;100.00;99140.31;5049967;28;20199;-69
2023/05/29 00:54:49;;;;;;;6.37;5.70;;;;;;;18.58;100.00;99139.47;5036068;28;20204;-69
2023/05/29 00:57:17;;;;;;;10.67;6.30;;;;;;;18.62;100.00;99126.34;5031432;28;20322;-69
2023/05/29 00:59:46;;;;;;;9.20;5.77;;;;;;;18.58;100.00;99122.53;5031568;28;20196;-70
2023/05/29 01:02:15;;;;;;;8.23;5.57;;;;;;;18.48;100.00;99123.25;5031740;28;20197;-69
2023/05/29 01:04:43;;;;;;;5.60;5.10;;;;;;;18.59;100.00;99129.53;5031224;28;20206;-69
2023/05/29 01:07:10;;;;;;;6.63;4.87;;;;;;;18.68;100.00;99136.91;5047598;28;20585;-69
2023/05/29 01:09:37;;;;;;;4.93;4.67;;;;;;;18.68;100.00;99136.06;5051389;28;20225;-68
2023/05/29 01:12:20;;;;;;;6.47;4.93;;;;;;;18.67;100.00;99123.69;5051254;28;20235;-69
2023/05/29 01:14:57;;;;;;;11.53;4.10;;;;;;;18.65;100.00;99120.44;5053043;28;20192;-69
2023/05/29 01:17:30;;;;;;;4.90;4.40;;;;;;;18.60;100.00;99126.59;5053970;28;20757;-69
2023/05/29 01:20:13;;;;;;;4.97;4.37;;;;;;;18.75;100.00;99128.59;5035022;28;20195;-69
2023/05/29 01:23:07;;;;;;;5.33;4.60;;;;;;;18.84;100.00;99121.66;5034861;28;20228;-68
2023/05/29 01:25:51;;;;;;;4.93;4.47;;;;;;;18.75;100.00;99120.53;5034895;28;20189;-68
2023/05/29 01:28:22;;;;;;;4.40;4.10;;;;;;;18.63;100.00;99122.59;5034750;28;20622;-69
2023/05/29 01:30:51;;;;;;;4.63;4.27;;;;;;;18.69;100.00;99126.91;5044889;28;20198;-69
2023/05/29 01:33:18;;;;;;;4.80;4.40;;;;;;;18.78;100.00;99120.03;5052861;28;20190;-69
2023/05/29 01:35:45;;;;;;;4.57;4.20;;;;;;;18.80;100.00;99116.00;5053985;28;20291;-69
2023/05/29 01:38:11;;;;;;;4.27;3.97;;;;;;;18.86;100.00;99122.22;5050224;28;20251;-72
2023/05/29 01:40:39;;;;;;;7.47;3.50;;;;;;;18.82;100.00;99113.03;5034151;28;20191;-69
2023/05/29 01:43:06;;;;;;;9.00;4.53;;;;;;;18.91;100.00;99123.06;5034478;28;20242;-69
2023/05/29 01:45:36;;;;;;;4.30;3.97;;;;;;;19.03;100.00;99122.88;5032573;28;20288;-70
2023/05/29 01:48:03;;;;;;;8.97;4.03;;;;;;;19.08;100.00;99120.22;5033472;28;20200;-69
2023/05/29 01:50:31;;;;;;;4.87;3.93;;;;;;;19.13;100.00;99114.88;5053110;28;20199;-69
2023/05/29 01:52:58;;;;;;;4.37;4.07;;;;;;;19.17;100.00;99121.34;5053667;28;20660;-71
2023/05/29 01:55:25;;;;;;;6.50;4.00;;;;;;;19.15;100.00;99123.50;5052298;28;20188;-70
2023/05/29 01:57:52;;;;;;;4.83;4.43;;;;;;;19.16;99.77;99120.53;5052999;28;20221;-69
2023/05/29 02:00:20;;;;;;;6.80;3.90;;;;;;;19.14;99.24;99121.88;5053805;28;20254;-69
2023/05/29 02:02:48;;;;;;;3.70;3.50;;;;;;;19.17;99.74;99126.75;5053445;28;20195;-69
2023/05/29 02:05:15;;;;;;;5.83;4.20;;;;;;;19.22;99.59;99124.06;5040607;28;20200;-68
2023/05/29 02:07:42;;;;;;;4.23;3.83;;;;;;;19.28;99.42;99137.34;5033001;28;20241;-70
2023/05/29 02:10:09;;;;;;;10.20;3.67;;;;;;;19.20;98.53;99126.22;5033557;28;20197;-69
2023/05/29 02:12:36;;;;;;;3.83;3.63;;;;;;;19.18;98.37;99134.56;5033564;28;20231;-69
2023/05/29 02:15:03;;;;;;;8.57;3.53;;;;;;;19.09;98.43;99140.69;5033501;28;20250;-69
2023/05/29 02:17:30;;;;;;;3.97;3.47;;;;;;;19.06;98.53;99135.81;5033408;28;20221;-69
2023/05/29 02:19:58;;;;;;;4.60;4.20;;;;;;;19.08;98.94;99136.38;5032864;28;20236;-69
2023/05/29 02:22:25;;;;;;;5.23;4.10;;;;;;;19.10;99.22;99131.53;5033829;28;20200;-69
2023/05/29 02:24:52;;;;;;;4.07;3.73;;;;;;;19.17;99.43;99137.50;5033601;28;20667;-69
2023/05/29 02:27:18;;;;;;;3.80;3.50;;;;;;;19.18;98.18;99128.34;5033248;28;20247;-69
2023/05/29 02:29:45;;;;;;;9.90;3.70;;;;;;;19.11;98.99;99128.59;5033500;28;20189;-69
2023/05/29 02:32:12;;;;;;;4.40;3.80;;;;;;;18.95;98.54;99140.31;5033470;28;20193;-69
2023/05/29 02:34:38;;;;;;;8.37;4.67;;;;;;;18.85;99.44;99131.34;5033213;28;20197;-69
2023/05/29 02:37:07;;;;;;;8.30;4.27;;;;;;;18.74;98.85;99137.75;5033172;28;20295;-69
2023/05/29 02:39:34;;;;;;;6.67;4.33;;;;;;;18.77;100.00;99146.09;5033364;28;20196;-68
2023/05/29 02:42:01;;;;;;;6.40;4.70;;;;;;;18.85;100.00;99145.63;5032916;28;20615;-70
2023/05/29 02:44:28;;;;;;;5.37;5.00;;;;;;;18.92;99.96;99140.84;5033048;28;20677;-69
2023/05/29 02:46:54;;;;;;;8.93;3.90;;;;;;;18.97;100.00;99137.38;5033353;28;20200;-69
2023/05/29 02:49:21;;;;;;;6.67;3.53;;;;;;;19.01;99.84;99143.84;5031978;28;20189;-69
2023/05/29 02:51:48;;;;;;;7.73;4.43;;;;;;;19.00;100.00;99142.25;5033259;28;20201;-70
2023/05/29 02:54:16;;;;;;;4.93;4.00;;;;;;;18.99;99.50;99141.44;5033091;28;20190;-70
2023/05/29 02:56:42;;;;;;;5.20;3.97;;;;;;;18.98;100.00;99138.97;5032730;28;20259;-70
2023/05/29 02:59:09;;;;;;;5.77;3.90;;;;;;;18.96;100.00;99141.97;5032623;28;20775;-70
2023/05/29 03:01:36;;;;;;;6.00;4.17;;;;;;;18.96;100.00;99151.91;5032674;28;20619;-69
2023/05/29 03:04:02;;;;;;;6.00;4.33;;;;;;;18.97;100.00;99157.03;5032740;28;20189;-70
2023/05/29 03:06:29;;;;;;;4.97;4.23;;;;;;;19.00;100.00;99158.41;5031846;28;20195;-69
2023/05/29 03:08:56;;;;;;;4.97;4.43;;;;;;;18.97;100.00;99158.91;5032813;28;20261;-69
2023/05/29 03:11:24;;;;;;;4.73;4.30;;;;;;;18.92;100.00;99151.63;5032112;28;20574;-69
2023/05/29 03:13:51;;;;;;;6.07;4.13;;;;;;;18.82;100.00;99156.09;5013028;28;20291;-69
2023/05/29 03:16:17;;;;;;;9.93;4.90;;;;;;;18.86;100.00;99157.19;5013035;28;20194;-69
2023/05/29 03:18:44;;;;;;;7.47;4.53;;;;;;;18.81;100.00;99162.53;5012515;28;20222;-69
2023/05/29 03:21:11;;;;;;;5.20;4.70;;;;;;;18.80;100.00;99163.63;5012857;28;20266;-68
2023/05/29 03:23:38;;;;;;;6.43;4.67;;;;;;;18.84;100.00;99164.72;5012794;28;20205;-69
2023/05/29 03:26:05;;;;;;;5.60;4.67;;;;;;;18.89;100.00;99162.06;5012802;28;20262;-68
2023/05/29 03:28:34;;;;;;;9.07;6.57;;;;;;;18.89;100.00;99167.47;5012442;28;20200;-68
2023/05/29 03:31:01;;;;;;;7.87;4.50;;;;;;;18.83;100.00;99168.50;5012739;28;20204;-68
2023/05/29 03:33:28;;;;;;;5.90;4.93;;;;;;;18.74;100.00;99165.44;5012630;28;20225;-68
2023/05/29 03:35:55;;;;;;;7.47;5.53;;;;;;;18.71;100.00;99168.66;5012576;28;20235;-67
2023/05/29 03:38:21;;;;;;;9.53;5.23;;;;;;;18.63;100.00;99169.13;5011571;28;20225;-68
2023/05/29 03:40:48;;;;;;;6.43;5.80;;;;;;;18.55;100.00;99166.09;5012130;28;20658;-66
2023/05/29 03:43:15;;;;;;;6.30;4.93;;;;;;;18.44;100.00;99170.56;5012200;28;20565;-68
2023/05/29 03:45:43;;;;;;;12.97;5.60;;;;;;;18.43;100.00;99168.13;5011994;28;20577;-65
2023/05/29 03:48:10;;;;;;;6.87;5.70;;;;;;;18.44;100.00;99169.75;5011996;28;20193;-65
2023/05/29 03:50:36;;;;;;;6.43;5.47;;;;;;;18.53;100.00;99168.22;5012121;28;20272;-72
2023/05/29 03:53:03;;;;;;;9.10;5.97;;;;;;;18.64;100.00;99164.56;5012257;28;20196;-72
2023/05/29 03:55:30;;;;;;;9.93;5.60;;;;;;;18.72;100.00;99166.78;5012019;28;20195;-72
2023/05/29 03:57:56;;;;;;;7.30;5.80;;;;;;;18.72;100.00;99173.00;5012305;28;20231;-72
2023/05/29 04:00:23;;;;;;;5.80;5.30;;;;;;;18.80;100.00;99169.00;5012298;28;20269;-72
2023/05/29 04:02:51;;;;;;;13.60;5.53;;;;;;;18.80;100.00;99169.00;5012325;28;20194;-72
2023/05/29 04:05:18;;;;;;;6.07;5.43;;;;;;;18.74;100.00;99164.66;5025712;28;20199;-72
2023/05/29 04:07:45;;;;;;;5.90;5.30;;;;;;;18.81;100.00;99182.22;5032027;28;20271;-72
2023/05/29 04:10:12;;;;;;;5.53;5.13;;;;;;;18.87;100.00;99188.44;5031903;28;20198;-71
2023/05/29 04:12:39;;;;;;;5.87;5.23;;;;;;;19.00;100.00;99182.63;5031681;28;20729;-72
2023/05/29 04:15:07;;;;;;;6.23;5.47;;;;;;;19.20;100.00;99180.09;5031823;28;20202;-71
2023/05/29 04:17:33;;;;;;;9.10;5.33;;;;;;;19.32;97.81;99189.63;5031546;28;20276;-70
2023/05/29 04:20:07;;;;;;;7.60;6.13;;;;;;;19.28;95.97;99187.72;5031491;28;20200;-70
2023/05/29 04:22:34;;;;;;;6.80;5.70;;;;;;;19.19;95.46;99195.41;5031618;28;20640;-70
2023/05/29 04:25:01;;;;;;;5.60;5.10;;;;;;;19.13;96.17;99195.66;5031726;28;20251;-70
2023/05/29 04:27:32;;;;;;;5.27;4.87;;;;;;;19.26;98.97;99195.22;5031578;28;20636;-70
2023/05/29 04:29:58;;;;;;;8.70;5.80;;;;;;;19.49;97.45;99194.84;5031771;28;20723;-70
2023/05/29 04:32:26;;;;;;;8.47;6.23;;;;;;;19.62;94.04;99203.28;5031914;28;20628;-71
2023/05/29 04:34:52;;;;;;;5.67;4.57;;;;;;;19.59;93.60;99205.66;5031362;28;20204;-70
2023/05/29 04:37:28;;;;;;;10.13;5.57;;;;;;;19.69;93.86;99205.75;5031406;28;20569;-74
2023/05/29 04:39:55;;;;;;;13.23;5.63;;;;;;;19.84;94.00;99219.28;5031662;28;20188;-72
2023/05/29 04:42:22;;;;;;;7.20;5.37;;;;;;;20.00;93.70;99212.88;5031460;28;20200;-71
2023/05/29 04:44:50;;;;;;;8.23;5.40;;;;;;;20.18;90.87;99220.56;5031650;28;20267;-67
2023/05/29 04:47:16;;;;;;;7.20;5.00;;;;;;;20.25;91.95;99219.22;5030233;28;20194;-67
2023/05/29 04:49:48;;;;;;;11.93;5.03;;;;;;;20.36;91.48;99220.06;5032961;28;20247;-69
2023/05/29 04:52:15;;;;;;;9.07;5.20;;;;;;;20.52;89.91;99224.44;5035187;28;20177;-68
2023/05/29 04:54:43;;;;;;;5.33;3.90;;;;;;;20.57;90.78;99224.44;5035157;28;20263;-73
2023/05/29 04:57:10;;;;;;;14.37;5.10;;;;;;;20.72;87.17;99218.25;5035193;28;20189;-66
2023/05/29 04:59:37;;;;;;;6.97;5.00;;;;;;;20.66;87.16;99233.63;5035081;28;20295;-65
2023/05/29 05:02:03;;;;;;;8.00;5.03;;;;;;;20.63;88.04;99233.34;5034770;28;20193;-67
2023/05/29 05:04:30;;;;;;;8.90;4.70;;;;;;;20.55;86.83;99232.00;5034950;28;20201;-67
2023/05/29 05:06:57;;;;;;;5.63;5.03;;;;;;;20.51;88.67;99236.31;5034694;28;20250;-68
2023/05/29 05:09:23;;;;;;;5.63;4.40;;;;;;;20.63;89.44;99239.56;5034487;28;20739;-67
2023/05/29 05:11:51;;;;;;;5.70;4.83;;;;;;;20.75;88.77;99234.75;5034453;28;20228;-67
2023/05/29 05:14:18;;;;;;;6.90;4.87;;;;;;;20.94;87.84;99240.47;5034952;28;20266;-67
2023/05/29 05:16:45;;;;;;;9.87;5.00;;;;;;;21.07;85.16;99240.72;5034781;28;20197;-66
2023/05/29 05:19:12;;;;;;;6.27;5.47;;;;;;;21.08;85.31;99245.06;5034203;28;20282;-66
2023/05/29 05:21:38;;;;;;;5.63;4.50;;;;;;;21.11;84.72;99251.81;5034075;28;20258;-67
2023/05/29 05:24:06;;;;;;;7.77;4.63;;;;;;;21.12;83.40;99248.84;5033980;28;20669;-67
2023/05/29 05:26:32;;;;;;;5.50;4.97;;;;;;;21.14;85.24;99245.88;5034526;28;20667;-65
2023/05/29 05:29:00;;;;;;;8.93;5.47;;;;;;;21.12;85.12;99250.72;5034730;28;20197;-65
2023/05/29 05:31:27;;;;;;;5.70;5.30;;;;;;;21.16;82.86;99258.03;5033696;28;20189;-68
2023/05/29 05:33:54;;;;;;;8.67;5.20;;;;;;;21.17;84.38;99248.84;5033911;28;20193;-67
2023/05/29 05:36:21;;;;;;;11.67;5.60;;;;;;;21.19;83.75;99260.16;5033785;28;20279;-69
2023/05/29 05:38:47;;;;;;;7.27;5.80;;;;;;;21.03;82.75;99261.25;5034166;28;20223;-67
2023/05/29 05:41:14;;;;;;;5.30;4.90;;;;;;;20.76;83.37;99268.75;5033629;28;20220;-66
2023/05/29 05:43:41;;;;;;;8.93;4.70;;;;;;;20.75;84.49;99266.31;5032404;28;20193;-68
2023/05/29 05:46:09;;;;;;;8.10;5.07;;;;;;;20.63;84.87;99266.56;5033373;28;20254;-67
2023/05/29 05:48:35;;;;;;;8.50;5.13;;;;;;;20.50;86.96;99253.56;5032707;28;20205;-67
2023/05/29 05:51:02;;;;;;;9.40;5.23;;;;;;;20.59;87.38;99265.47;5031598;28;20705;-75
2023/05/29 05:53:29;;;;;;;7.67;4.53;;;;;;;20.56;87.03;99260.59;5030771;28;20251;-67
2023/05/29 05:55:55;;;;;;;9.40;6.13;;;;;;;20.38;87.67;99263.78;5020029;28;20198;-71
2023/05/29 05:58:22;;;;;;;6.40;5.50;;;;;;;20.31;88.45;99260.53;5014851;28;20236;-67
2023/05/29 06:00:52;;;;;;;8.77;5.57;;;;;;;20.23;88.54;99259.16;5016587;28;20189;-68
2023/05/29 06:03:20;;;;;;;5.30;4.90;;;;;;;20.13;88.26;99260.97;5029380;28;20197;-68
2023/05/29 06:05:47;;;;;;;6.33;5.60;;;;;;;20.00;90.27;99266.81;5027210;28;20278;-67
2023/05/29 06:08:15;;;;;;;9.67;5.43;;;;;;;20.08;89.65;99260.91;5031416;28;20201;-68
2023/05/29 06:10:41;;;;;;;8.47;5.17;;;;;;;20.19;90.06;99249.16;5029894;28;20293;-69
2023/05/29 06:13:08;;;;;;;6.27;5.20;;;;;;;20.32;89.74;99259.44;5029539;28;20193;-67
2023/05/29 06:15:35;;;;;;;9.27;4.90;;;;;;;20.31;89.07;99257.81;5031835;28;20204;-67
2023/05/29 06:18:02;;;;;;;9.77;5.10;;;;;;;20.25;88.76;99246.19;5032630;28;20189;-67
2023/05/29 06:20:30;;;;;;;8.10;5.20;;;;;;;20.28;88.48;99252.94;5032852;28;20193;-68
2023/05/29 06:22:57;;;;;;;8.03;5.63;;;;;;;20.40;90.27;99248.13;5028007;28;20255;-67
2023/05/29 06:25:30;;;;;;;9.50;4.83;;;;;;;20.48;88.39;99242.22;5033281;28;20248;-67
2023/05/29 06:27:57;;;;;;;8.03;5.43;;;;;;;20.63;88.49;99258.47;5029308;28;20193;-68
2023/05/29 06:30:23;;;;;;;11.43;5.50;;;;;;;20.64;88.44;99268.19;5032280;28;20193;-67
2023/05/29 06:32:50;;;;;;;7.30;5.70;;;;;;;20.74;88.03;99259.28;5033413;28;20227;-67
2023/05/29 06:35:17;;;;;;;11.07;5.77;;;;;;;20.68;86.54;99263.88;5032435;28;20283;-69
2023/05/29 06:37:46;;;;;;;9.10;5.37;;;;;;;20.44;87.39;99251.94;5031831;28;20224;-68
2023/05/29 06:40:14;;;;;;;7.40;5.17;;;;;;;20.64;88.68;99268.19;5032906;28;20221;-68
2023/05/29 06:42:40;;;;;;;5.87;5.37;;;;;;;20.76;87.55;99266.06;5032877;28;20657;-65
2023/05/29 06:45:08;;;;;;;8.90;5.90;;;;;;;20.92;87.60;99259.63;5030333;28;20738;-66
2023/05/29 06:47:35;;;;;;;9.03;6.00;;;;;;;20.93;87.92;99253.13;5030774;28;20217;-68
2023/05/29 06:50:01;;;;;;;7.30;6.60;;;;;;;21.01;87.73;99266.13;5032041;28;20260;-66
2023/05/29 06:52:28;;;;;;;9.23;8.20;;;;;;;21.07;86.96;99270.44;5031989;28;20194;-72
2023/05/29 06:54:56;;;;;;;9.83;7.67;;;;;;;21.31;87.70;99274.22;5031979;28;20193;-70
2023/05/29 06:57:23;;;;;;;7.47;5.60;;;;;;;21.54;86.04;99276.38;5031246;28;20212;-67
2023/05/29 06:59:50;;;;;;;5.73;5.33;;;;;;;21.82;85.66;99270.41;5031134;28;20286;-69
2023/05/29 07:02:16;;;;;;;6.27;5.63;;;;;;;21.95;81.66;99282.53;5029297;28;20670;-69
2023/05/29 07:04:43;;;;;;;5.53;5.00;;;;;;;22.02;82.22;99283.91;5030374;28;20197;-70
2023/05/29 07:07:10;;;;;;;9.20;4.10;;;;;;;22.27;82.01;99278.41;5018862;28;20206;-75
2023/05/29 07:09:36;;;;;;;6.83;5.10;;;;;;;22.59;80.24;99286.94;5010265;28;20656;-70
2023/05/29 07:12:05;;;;;;;8.70;5.97;;;;;;;22.52;78.45;99286.44;5010212;28;20276;-68
2023/05/29 07:14:32;;;;;;;7.43;5.33;;;;;;;22.45;79.29;99287.78;5011012;28;20198;-68
2023/05/29 07:16:59;;;;;;;6.30;5.03;;;;;;;22.52;78.95;99283.72;5028652;28;20219;-71
2023/05/29 07:19:25;;;;;;;5.70;4.60;;;;;;;22.47;77.68;99282.94;5030740;28;20213;-69
2023/05/29 07:21:52;;;;;;;4.30;4.00;;;;;;;22.54;77.04;99300.50;5031100;28;20201;-69
2023/05/29 07:24:19;;;;;;;5.00;4.27;;;;;;;22.56;77.14;99298.34;5037893;28;20920;-69
2023/05/29 07:26:46;;;;;;;9.07;4.90;;;;;;;22.65;76.51;99293.94;5051614;28;20684;-72
2023/05/29 07:29:14;;;;;;;6.00;4.17;;;;;;;22.75;76.54;99295.78;5051381;28;20202;-69
2023/05/29 07:31:42;;;;;;;6.37;4.20;;;;;;;22.76;75.70;99281.97;5026005;28;20674;-69
2023/05/29 07:34:08;;;;;;;7.27;4.20;;;;;;;22.85;75.66;99301.97;5028464;28;20222;-69
2023/05/29 07:36:35;;;;;;;4.70;4.10;;;;;;;22.73;75.77;99300.66;5034145;28;20276;-74
2023/05/29 07:39:02;;;;;;;6.37;4.17;;;;;;;22.82;76.47;99290.88;5041887;28;20699;-77
2023/05/29 07:41:29;;;;;;;4.57;4.10;;;;;;;23.16;76.59;99300.66;5032667;28;20248;-76
2023/05/29 07:43:56;;;;;;;5.97;4.60;;;;;;;23.39;73.73;99308.13;5048402;28;20197;-74
2023/05/29 07:46:24;;;;;;;5.57;3.70;;;;;;;23.46;74.01;99308.59;5040315;28;20199;-75
2023/05/29 07:48:50;;;;;;;5.57;3.93;;;;;;;23.51;72.85;99305.03;5031092;28;20201;-71
2023/05/29 07:51:17;;;;;;;4.00;3.67;;;;;;;23.44;72.20;99310.78;5031889;28;20197;-70
2023/05/29 07:53:45;;;;;;;5.60;4.00;;;;;;;23.29;72.78;99302.78;5029799;28;20269;-72
2023/05/29 07:56:12;;;;;;;10.77;4.40;;;;;;;23.35;72.48;99315.19;5047721;28;20199;-71
2023/05/29 07:58:40;;;;;;;7.97;3.43;;;;;;;23.42;70.62;99315.69;5030105;28;20255;-74
2023/05/29 08:01:06;;;;;;;6.67;3.67;;;;;;;23.47;71.14;99315.63;5030298;28;20259;-75
2023/05/29 08:03:34;;;;;;;5.27;3.47;;;;;;;23.56;72.49;99313.13;5029552;28;20187;-73
2023/05/29 08:06:01;;;;;;;6.43;3.80;;;;;;;23.63;71.38;99313.59;5030485;28;20195;-67
2023/05/29 08:08:28;;;;;;;8.60;4.47;;;;;;;23.63;71.02;99309.00;5030244;28;20251;-69
2023/05/29 08:10:54;;;;;;;4.93;3.43;;;;;;;23.70;69.59;99316.78;5031599;28;20234;-68
2023/05/29 08:13:22;;;;;;;8.73;3.70;;;;;;;23.63;70.67;99308.19;5031750;28;20199;-68
2023/05/29 08:15:49;;;;;;;6.53;4.13;;;;;;;23.63;71.57;99309.00;5031661;28;20202;-67
2023/05/29 08:18:15;;;;;;;4.10;3.90;;;;;;;23.62;71.41;99306.56;5031133;28;20194;-68
2023/05/29 08:20:44;;;;;;;4.80;3.90;;;;;;;23.61;71.15;99305.75;5031234;28;20775;-68
2023/05/29 08:23:11;;;;;;;17.73;3.80;;;;;;;23.68;70.97;99311.66;5031583;28;20234;-68
2023/05/29 08:25:38;;;;;;;6.03;3.70;;;;;;;23.91;70.73;99305.50;5034886;28;20203;-67
2023/05/29 08:28:05;;;;;;;19.57;4.97;;;;;;;24.21;67.71;99316.03;5035114;28;20253;-67
2023/05/29 08:30:31;;;;;;;13.00;4.43;;;;;;;24.26;67.42;99307.03;5036085;28;20245;-69
2023/05/29 08:32:58;;;;;;;3.20;3.00;;;;;;;24.49;66.37;99309.72;5045187;28;20259;-71
2023/05/29 08:35:25;;;;;;;3.93;3.57;;;;;;;24.62;66.23;99303.59;5032654;28;20302;-69
2023/05/29 08:37:53;;;;;;;7.70;3.60;;;;;;;24.55;65.16;99294.97;5033663;28;20195;-70
2023/05/29 08:40:20;;;;;;;2.97;2.77;;;;;;;24.85;66.38;99285.63;5032783;28;20282;-71
2023/05/29 08:42:51;;;;;;;21.73;4.20;;;;;;;25.16;64.82;99288.72;5033101;28;20196;-71
2023/05/29 08:45:21;;;;;;;3.77;3.03;;;;;;;25.37;61.68;99292.75;5033434;28;20197;-71
2023/05/29 08:47:53;;;;;;;6.17;3.43;;;;;;;25.65;60.83;99297.16;5033338;28;20665;-71
2023/05/29 08:50:20;;;;;;;11.60;3.37;;;;;;;25.86;58.87;99298.41;5032527;28;20193;-70
2023/05/29 08:52:48;;;;;;;19.80;3.83;;;;;;;25.96;58.69;99295.56;5032979;28;20189;-69
2023/05/29 08:55:16;;;;;;;5.27;3.80;;;;;;;26.02;59.54;99291.63;5030769;28;20197;-74
2023/05/29 08:57:43;;;;;;;9.40;3.20;;;;;;;26.22;58.85;99285.78;5033149;28;20198;-70
2023/05/29 09:00:13;;;;;;;21.63;4.70;;;;;;;26.32;59.88;99285.56;5032022;28;20223;-70
2023/05/29 09:02:40;;;;;;;52.67;6.03;;;;;;;26.38;58.87;99284.38;5032941;28;20225;-73
2023/05/29 09:05:08;;;;;;;7.63;3.87;;;;;;;26.33;60.82;99285.25;5032712;28;20193;-69
2023/05/29 09:07:38;;;;;;;10.47;9.40;;;;;;;26.39;56.72;99286.78;5033435;28;20201;-68
2023/05/29 09:10:06;;;;;;;5.67;5.07;;;;;;;26.18;56.03;99298.38;5033326;28;20201;-68
2023/05/29 09:12:34;;;;;;;18.37;8.13;;;;;;;26.25;58.10;99282.47;5031347;28;20197;-78
2023/05/29 09:15:01;;;;;;;40.80;12.43;;;;;;;26.27;59.74;99283.78;5032931;28;20193;-71
2023/05/29 09:17:32;;;;;;;8.97;6.43;;;;;;;26.23;57.13;99292.84;5031805;28;20251;-70
2023/05/29 09:20:00;;;;;;;129.57;89.27;;;;;;;26.19;62.88;99270.84;5033010;28;20306;-70
2023/05/29 09:22:27;;;;;;;10.13;6.03;;;;;;;26.17;58.76;99288.63;5045440;28;20204;-76
2023/05/29 09:24:54;;;;;;;18.43;6.73;;;;;;;26.12;58.47;99285.97;5037627;28;20190;-79
2023/05/29 09:27:23;;;;;;;33.10;26.17;;;;;;;26.01;62.99;99269.03;5032379;28;20255;-69
2023/05/29 09:29:51;;;;;;;20.40;13.97;;;;;;;26.31;61.83;99276.59;5041537;28;20196;-70
2023/05/29 09:32:19;;;;;;;55.50;10.60;;;;;;;26.49;61.14;99275.66;5035464;28;20197;-73
2023/05/29 09:34:46;;;;;;;53.73;8.30;;;;;;;26.66;59.31;99278.59;5032184;28;20205;-71
2023/05/29 09:37:14;;;;;;;18.60;5.37;;;;;;;26.84;58.07;99285.03;5040275;28;20243;-68
2023/05/29 09:39:47;;;;;;;7.73;5.37;;;;;;;26.67;55.97;99293.03;5045401;28;20240;-69
2023/05/29 09:42:14;;;;;;;10.83;7.73;;;;;;;26.42;57.43;99285.38;5037739;28;20197;-68
2023/05/29 09:44:41;;;;;;;30.50;7.50;;;;;;;26.46;56.41;99286.38;5034077;28;20197;-69
2023/05/29 09:47:10;;;;;;;14.77;7.13;;;;;;;26.53;58.43;99282.13;5033900;28;20200;-69
2023/05/29 09:49:41;;;;;;;8.10;6.00;;;;;;;26.64;56.81;99286.28;5033618;28;20201;-69
2023/05/29 09:52:09;;;;;;;5.87;4.10;;;;;;;26.62;56.80;99288.50;5034048;28;20247;-70
2023/05/29 09:54:37;;;;;;;3.33;3.13;;;;;;;26.53;55.88;99289.47;5034027;28;20201;-68
2023/05/29 09:57:05;;;;;;;3.43;3.23;;;;;;;26.23;55.73;99265.59;5033710;28;20200;-69
2023/05/29 09:59:34;;;;;;;10.70;4.30;;;;;;;26.23;58.16;99266.41;5033577;28;20222;-69
2023/05/29 10:02:03;;;;;;;6.30;4.60;;;;;;;26.18;57.61;99258.34;5033773;28;20202;-70
2023/05/29 10:04:33;;;;;;;6.03;5.33;;;;;;;26.22;56.35;99261.28;5033732;28;20197;-70
2023/05/29 10:07:05;;;;;;;12.30;6.03;;;;;;;26.27;57.44;99255.72;5033870;28;20268;-71
2023/05/29 10:09:34;;;;;;;22.00;5.73;;;;;;;26.39;56.72;99259.56;5034015;28;20229;-69
2023/05/29 10:12:04;;;;;;;7.40;4.43;;;;;;;26.51;56.97;99248.13;5033565;28;20730;-69
2023/05/29 10:14:33;;;;;;;5.07;4.20;;;;;;;26.54;54.25;99258.41;5033750;28;20247;-70
2023/05/29 10:17:06;;;;;;;33.03;6.23;;;;;;;26.46;55.42;99250.97;5033877;28;20284;-69
2023/05/29 10:19:37;;;;;;;23.67;6.67;;;;;;;26.38;56.12;99247.03;5033846;28;20303;-69
2023/05/29 10:22:05;;;;;;;11.13;4.40;;;;;;;26.38;55.55;99252.47;5033761;28;20256;-69
2023/05/29 10:24:33;;;;;;;16.77;6.20;;;;;;;26.38;56.75;99246.22;5031824;28;20204;-74
2023/05/29 10:27:01;;;;;;;4.37;3.77;;;;;;;26.54;57.02;99236.63;5031806;28;20193;-73
2023/05/29 10:29:34;;;;;;;34.73;6.07;;;;;;;26.75;57.22;99241.31;5032378;28;20306;-73
2023/05/29 10:32:09;;;;;;;22.67;5.37;;;;;;;26.91;53.06;99244.53;5043030;28;20201;-72
2023/05/29 10:34:46;;;;;;;32.40;7.17;;;;;;;26.83;53.97;99242.53;5051832;28;20188;-71
2023/05/29 10:37:24;;;;;;;9.87;6.03;;;;;;;26.85;53.12;99234.84;5041209;28;20192;-69
2023/05/29 10:39:51;;;;;;;3.90;3.20;;;;;;;26.71;48.94;99245.78;5016676;28;20205;-70
2023/05/29 10:42:42;;;;;;;4.23;3.20;;;;;;;26.74;54.28;99228.03;5021748;28;20260;-69
2023/05/29 10:45:09;;;;;;;6.97;4.23;;;;;;;26.93;52.18;99239.56;5030466;28;20189;-69
2023/05/29 10:47:36;;;;;;;9.13;3.53;;;;;;;27.14;51.72;99246.13;5009410;28;20200;-68
2023/05/29 10:50:05;;;;;;;6.73;6.07;;;;;;;27.31;56.81;99224.47;5009869;28;20197;-69
2023/05/29 10:52:32;;;;;;;20.33;5.00;;;;;;;27.44;53.67;99232.56;5012519;28;20194;-68
2023/05/29 10:55:00;;;;;;;6.13;4.40;;;;;;;27.70;51.89;99232.72;5009198;28;20205;-70
2023/05/29 10:57:29;;;;;;;5.57;3.40;;;;;;;27.81;50.02;99236.78;5011891;28;20285;-70
2023/05/29 11:00:00;;;;;;;18.73;5.30;;;;;;;27.85;51.09;99226.88;5011172;28;20233;-70
2023/05/29 11:02:27;;;;;;;3.27;2.97;;;;;;;27.93;48.99;99226.13;5011357;28;20185;-69
2023/05/29 11:05:22;;;;;;;10.63;4.07;;;;;;;27.72;52.10;99217.63;5020515;28;20201;-68
2023/05/29 11:07:59;;;;;;;4.97;3.83;;;;;;;27.80;50.19;99219.59;5031489;28;20186;-68
2023/05/29 11:10:46;;;;;;;3.87;3.13;;;;;;;27.86;48.88;99223.03;5030635;28;20666;-67
2023/05/29 11:13:24;;;;;;;15.40;4.30;;;;;;;28.08;48.29;99214.75;5011083;28;20198;-69
2023/05/29 11:16:11;;;;;;;9.33;3.90;;;;;;;28.35;48.65;99219.97;5011227;28;20276;-68
2023/05/29 11:18:44;;;;;;;10.40;3.97;;;;;;;28.68;48.34;99213.78;5011131;28;20186;-67
2023/05/29 11:21:31;;;;;;;9.27;3.53;;;;;;;29.25;45.00;99222.63;5010751;28;20221;-74
2023/05/29 11:23:59;;;;;;;4.33;3.90;;;;;;;29.48;46.38;99213.06;5009775;28;20193;-68
2023/05/29 11:26:27;;;;;;;20.10;4.00;;;;;;;29.73;44.43;99217.72;5013620;28;20665;-66
2023/05/29 11:28:54;;;;;;;5.37;3.20;;;;;;;29.74;43.58;99207.53;5029550;28;20202;-67
2023/05/29 11:31:22;;;;;;;3.50;3.30;;;;;;;29.90;46.17;99212.16;5030088;28;20259;-72
2023/05/29 11:33:51;;;;;;;3.13;2.83;;;;;;;29.71;43.03;99214.47;5030448;28;20197;-74